Kezdőlap
METAR-TAF:

METAR-TAF

Repülőterek :

Municipal_Airport

Cherokee, Iowa, Amerikai Egyesült Államok

földrajzi szélesség: 42-43-54N, földrajzi hosszúság: 095-33-21W, magasság: 374 m

Jelenlegi meteorológiai megfigyelések

A jelentés 18 perccel ezelõtt készült, 15:55 UTC
Délkeleti szél 3 kt
Hőmérséklet -12°C
Páratartalom 85%
Légköri nyomás 1019 hPa
Látótávolság: 16.1 km
Szórványos felhőzet 4000 lábon
Szakadozott felhőzet 4600 lábon
Borult 5000 lábon

METAR: KCKP 151555Z AUTO 14003KT 10SM SCT040 BKN046 OVC050 M12/M14 A3010 RMK AO2 T11201145

Idő: 10:13 (16:13 UTC)


TAF: hiányzik

Meteorológiai megfigyelések és előrejelzések több, mint 4000 repülőtéren (METAR és TAF jelentéseket).

A térképen piros és sárga pontok jelzik az elérhető meteorológiai állomásokat.

Mozgassa az egeret a pont fölött, hogy megjelenjen az állomás neve.

Azután kattintson az időjárási megfigyelések és előrejelzések megtekintéséhez.

A térkép megváltoztatása: kattintson a fekete keresztel jelölt zöld gombra ráközelítéshez, a vonallal jelölt zöld gombra távolításhoz, vagy a zöld nyilakra a szomszédos térképek eléréséhez.


METAR-TAF: